Time;durP1;ratioP1;P1;durP2;ratioP2;P2;SDS_P1;SDS_P2;PMS_P1;PMS_P2;Temp;Humidity;BMP_temperature;BMP_pressure;BME280_temperature;BME280_humidity;BME280_pressure;Samples;Min_cycle;Max_cycle;Signal;HPM_P1;HPM_P2
2023/06/30 06:57:48;;;;;;;;;4.33;4.33;;;;;21.57;51.85;101322.81;5108523;27;45579;-83
2023/06/30 07:00:17;;;;;;;;;4.00;3.00;;;;;21.71;50.96;101329.66;5097492;27;45493;-83
2023/06/30 07:02:43;;;;;;;;;4.67;4.00;;;;;21.87;51.51;101328.25;5111764;27;45535;-84
2023/06/30 07:05:09;;;;;;;;;4.67;3.33;;;;;22.02;50.67;101317.81;5108595;27;45574;-82
2023/06/30 07:07:34;;;;;;;;;4.00;4.00;;;;;22.21;51.21;101324.19;5105582;27;45792;-83
2023/06/30 07:10:00;;;;;;;;;3.33;3.33;;;;;22.36;50.29;101321.91;5107628;27;45621;-85
2023/06/30 07:12:25;;;;;;;;;4.33;4.33;;;;;22.53;49.79;101322.97;5103824;27;45376;-85
2023/06/30 07:14:50;;;;;;;;;3.33;2.33;;;;;22.67;48.83;101328.91;5109366;27;45403;-80
2023/06/30 07:17:16;;;;;;;;;1.00;1.00;;;;;22.76;48.11;101318.06;5105802;27;57065;-79
2023/06/30 07:19:41;;;;;;;;;3.00;3.00;;;;;22.88;47.39;101323.28;5097929;27;45817;-80
2023/06/30 07:22:07;;;;;;;;;2.67;2.67;;;;;22.95;46.96;101324.41;5106334;27;45287;-80
2023/06/30 07:24:32;;;;;;;;;2.67;2.67;;;;;23.01;46.41;101329.19;5102494;27;45512;-80
2023/06/30 07:26:58;;;;;;;;;5.33;4.67;;;;;23.08;46.09;101331.28;5106055;27;55311;-80
2023/06/30 07:29:24;;;;;;;;;2.33;2.33;;;;;23.17;46.35;101335.78;5110115;27;45684;-79
2023/06/30 07:31:49;;;;;;;;;4.00;4.00;;;;;23.25;46.07;101337.75;5105314;27;45545;-82
2023/06/30 07:34:18;;;;;;;;;4.00;4.00;;;;;23.31;46.09;101342.56;5099829;27;52598;-79
2023/06/30 07:36:44;;;;;;;;;3.67;3.67;;;;;23.38;45.30;101345.56;5102164;27;46084;-80
2023/06/30 07:39:09;;;;;;;;;5.67;4.33;;;;;23.39;44.74;101347.25;5106241;27;45535;-79
2023/06/30 07:41:34;;;;;;;;;6.00;4.67;;;;;23.44;44.90;101339.50;5100694;27;45461;-81
2023/06/30 07:44:01;;;;;;;;;3.00;3.00;;;;;23.49;45.00;101339.03;5102066;27;45501;-79
2023/06/30 07:46:26;;;;;;;;;3.00;3.00;;;;;23.50;44.92;101338.88;5098642;27;45588;-81
2023/06/30 07:48:52;;;;;;;;;4.00;3.33;;;;;23.55;44.39;101341.16;5101572;27;46236;-80
2023/06/30 07:51:17;;;;;;;;;3.67;2.67;;;;;23.60;44.88;101337.97;5097577;27;45717;-81
2023/06/30 07:53:42;;;;;;;;;2.67;2.67;;;;;23.63;44.16;101340.38;5107957;27;45629;-80
2023/06/30 07:56:07;;;;;;;;;3.00;3.00;;;;;23.67;43.66;101333.66;5106542;27;60061;-78
2023/06/30 07:58:33;;;;;;;;;2.00;2.00;;;;;23.66;43.56;101337.34;5101707;27;46105;-79
2023/06/30 08:00:58;;;;;;;;;3.00;3.00;;;;;23.72;43.66;101353.00;5098864;27;45475;-78
2023/06/30 08:03:23;;;;;;;;;3.00;3.00;;;;;23.78;43.58;101351.50;5107017;27;45520;-76
2023/06/30 08:05:49;;;;;;;;;4.00;3.00;;;;;23.79;43.28;101348.66;5108995;27;52048;-77
2023/06/30 08:08:14;;;;;;;;;1.00;1.00;;;;;23.82;43.02;101344.78;5099791;27;45557;-77
2023/06/30 08:10:40;;;;;;;;;3.33;3.33;;;;;23.80;42.66;101339.50;5091587;27;45559;-76
2023/06/30 08:13:05;;;;;;;;;2.67;2.00;;;;;23.84;42.67;101352.75;5080573;27;45395;-77
2023/06/30 08:15:31;;;;;;;;;4.00;3.00;;;;;23.84;43.09;101345.47;5094303;27;47309;-80
2023/06/30 08:17:56;;;;;;;;;3.33;3.33;;;;;23.89;42.33;101335.03;5087292;27;53167;-78
2023/06/30 08:20:22;;;;;;;;;4.00;3.00;;;;;23.91;42.55;101338.41;5080096;27;45409;-78
2023/06/30 08:22:47;;;;;;;;;2.67;2.67;;;;;23.93;42.36;101332.84;5092996;27;45416;-78
2023/06/30 08:25:12;;;;;;;;;3.00;3.00;;;;;23.95;41.79;101342.50;5089449;27;54333;-75
2023/06/30 08:27:37;;;;;;;;;3.67;3.67;;;;;23.95;41.59;101337.09;5092700;27;52005;-82
2023/06/30 08:30:03;;;;;;;;;3.00;3.00;;;;;23.99;41.31;101336.78;5093201;27;46089;-82
2023/06/30 08:32:29;;;;;;;;;3.00;3.00;;;;;24.04;41.36;101334.47;5095281;27;45442;-81
2023/06/30 08:34:54;;;;;;;;;4.00;3.00;;;;;24.05;41.10;101337.00;5091858;27;46275;-83
2023/06/30 08:37:19;;;;;;;;;3.00;3.00;;;;;24.09;40.85;101340.28;5090144;27;47808;-84
2023/06/30 08:39:44;;;;;;;;;3.00;3.00;;;;;24.13;40.89;101338.97;5095028;27;45393;-84
2023/06/30 08:42:15;;;;;;;;;3.33;3.33;;;;;24.13;40.33;101333.53;5080860;27;51753;-84
2023/06/30 08:44:43;;;;;;;;;3.67;3.67;;;;;24.14;40.07;101332.53;5097843;27;47178;-82
2023/06/30 08:47:13;;;;;;;;;3.00;3.00;;;;;24.15;39.60;101342.34;5095177;27;45572;-75
2023/06/30 08:49:38;;;;;;;;;2.00;2.00;;;;;24.17;39.40;101328.66;5091762;27;45511;-79
2023/06/30 08:52:04;;;;;;;;;2.33;2.33;;;;;24.18;39.57;101322.19;5093260;27;45579;-87
2023/06/30 08:54:31;;;;;;;;;2.67;2.67;;;;;24.20;39.78;101325.63;5082588;27;45599;-76
2023/06/30 08:56:57;;;;;;;;;3.00;3.00;;;;;24.25;39.82;101323.28;5091729;27;45386;-74
2023/06/30 08:59:23;;;;;;;;;3.33;2.00;;;;;24.24;40.22;101308.03;5087730;27;45407;-74
2023/06/30 09:01:49;;;;;;;;;2.00;2.00;;;;;24.34;40.78;101313.31;5094583;27;45428;-75
2023/06/30 09:04:15;;;;;;;;;3.00;3.00;;;;;24.40;41.14;101318.09;5087269;27;45524;-76
2023/06/30 09:06:49;;;;;;;;;1.67;1.00;;;;;24.46;40.92;101308.47;5094000;27;45392;-76
2023/06/30 09:09:25;;;;;;;;;3.67;3.00;;;;;24.53;41.55;101312.25;5092083;27;45544;-76
2023/06/30 09:11:52;;;;;;;;;2.67;2.67;;;;;24.58;41.14;101300.91;5092749;27;45438;-76
2023/06/30 09:14:19;;;;;;;;;2.33;2.33;;;;;24.60;41.75;101298.88;5092544;27;46363;-77
2023/06/30 09:16:45;;;;;;;;;3.00;3.00;;;;;24.67;41.64;101305.38;5103786;27;45597;-77
2023/06/30 09:19:12;;;;;;;;;2.00;2.00;;;;;24.73;41.72;101304.69;5086096;27;45421;-78
2023/06/30 09:21:38;;;;;;;;;3.00;3.00;;;;;24.80;41.99;101309.50;5083690;27;45485;-76
2023/06/30 09:24:03;;;;;;;;;1.67;1.67;;;;;24.84;42.25;101300.03;5081998;27;46921;-78
2023/06/30 09:26:29;;;;;;;;;3.00;2.00;;;;;24.89;42.17;101307.69;5084721;27;45443;-77
2023/06/30 09:28:55;;;;;;;;;3.00;2.00;;;;;24.92;42.50;101304.63;5082666;27;45416;-74
2023/06/30 09:31:28;;;;;;;;;2.00;2.00;;;;;24.97;42.52;101310.44;5083236;27;45611;-74
2023/06/30 09:34:06;;;;;;;;;4.00;2.00;;;;;24.99;42.35;101300.25;5088961;27;46377;-75
2023/06/30 09:36:34;;;;;;;;;2.00;1.67;;;;;25.05;42.64;101298.75;5083704;27;45725;-74
2023/06/30 09:38:59;;;;;;;;;3.33;3.33;;;;;25.08;42.34;101304.69;5087188;27;45510;-78
2023/06/30 09:41:25;;;;;;;;;2.67;2.00;;;;;25.12;42.95;101302.50;5085677;27;45532;-77
2023/06/30 09:44:00;;;;;;;;;3.67;2.33;;;;;25.16;42.77;101297.56;5088934;27;45460;-75
2023/06/30 09:46:27;;;;;;;;;2.00;2.00;;;;;25.18;43.07;101304.53;5078467;27;45409;-75
2023/06/30 09:48:53;;;;;;;;;2.67;2.00;;;;;25.21;42.80;101298.78;5086240;27;45659;-76
2023/06/30 09:51:22;;;;;;;;;2.33;2.33;;;;;25.24;42.99;101292.16;5087673;27;45538;-76
2023/06/30 09:53:51;;;;;;;;;0.67;0.67;;;;;25.25;42.98;101288.41;5087181;27;45564;-76
2023/06/30 09:56:21;;;;;;;;;1.67;1.67;;;;;25.31;42.81;101289.63;5087533;27;45539;-76
2023/06/30 09:58:47;;;;;;;;;3.67;2.67;;;;;25.33;42.94;101299.31;5091803;27;45748;-76
2023/06/30 10:01:17;;;;;;;;;2.33;2.33;;;;;25.38;42.35;101293.38;5090122;27;45518;-79
2023/06/30 10:03:48;;;;;;;;;3.00;3.00;;;;;25.38;41.55;101293.38;5089880;27;46463;-77
2023/06/30 10:06:16;;;;;;;;;3.33;3.00;;;;;25.37;40.47;101287.09;5087552;27;45455;-79
2023/06/30 10:08:42;;;;;;;;;3.67;2.67;;;;;25.38;40.25;101288.78;5080619;27;45459;-79
2023/06/30 10:11:08;;;;;;;;;2.67;2.67;;;;;25.38;40.84;101279.81;5082339;27;45699;-81
2023/06/30 10:13:35;;;;;;;;;2.00;2.00;;;;;25.39;40.91;101287.75;5092025;27;45378;-80
2023/06/30 10:16:01;;;;;;;;;2.00;2.00;;;;;25.39;40.25;101284.22;5091947;27;45476;-81
2023/06/30 10:18:28;;;;;;;;;2.00;2.00;;;;;25.40;40.52;101272.31;5090587;27;45584;-78
2023/06/30 10:20:54;;;;;;;;;4.00;2.00;;;;;25.41;39.21;101273.19;5092564;27;45770;-77
2023/06/30 10:23:22;;;;;;;;;3.00;3.00;;;;;25.43;39.94;101277.44;5089787;27;53431;-76
2023/06/30 10:25:48;;;;;;;;;2.00;2.00;;;;;25.44;39.65;101278.25;5090102;27;45679;-76
2023/06/30 10:28:14;;;;;;;;;4.33;3.00;;;;;25.45;39.61;101271.81;5084872;27;45652;-76
2023/06/30 10:30:40;;;;;;;;;2.33;2.33;;;;;25.45;39.04;101264.50;5086951;27;45550;-76
2023/06/30 10:33:05;;;;;;;;;5.33;4.00;;;;;25.44;39.60;101270.97;5087777;27;46379;-80
2023/06/30 10:35:32;;;;;;;;;2.00;2.00;;;;;25.44;39.92;101270.97;5083648;27;45465;-77
2023/06/30 10:37:58;;;;;;;;;2.67;2.67;;;;;25.44;40.46;101272.81;5091594;27;45410;-79
2023/06/30 10:40:23;;;;;;;;;3.33;3.33;;;;;25.45;39.72;101274.50;5092990;27;45440;-79
2023/06/30 10:42:52;;;;;;;;;2.00;2.00;;;;;25.47;39.33;101273.31;5079248;27;45460;-77
2023/06/30 10:45:18;;;;;;;;;4.33;4.33;;;;;25.48;40.26;101268.75;5084264;27;45591;-78
2023/06/30 10:47:50;;;;;;;;;2.33;2.33;;;;;25.50;40.21;101274.88;5084228;27;45497;-84
2023/06/30 10:50:15;;;;;;;;;6.00;5.00;;;;;25.51;39.57;101269.25;5086951;27;45544;-83
2023/06/30 10:52:49;;;;;;;;;5.00;3.00;;;;;25.50;39.21;101267.56;5099404;27;48605;-79
2023/06/30 10:55:15;;;;;;;;;4.00;3.00;;;;;25.51;38.55;101273.88;5091059;27;45752;-80
2023/06/30 10:57:40;;;;;;;;;3.00;3.00;;;;;25.51;38.42;101271.97;5083882;27;45515;-78
2023/06/30 11:00:10;;;;;;;;;3.00;3.00;;;;;25.52;39.43;101272.84;5089464;27;45438;-78
2023/06/30 11:02:45;;;;;;;;;4.67;4.67;;;;;25.52;39.97;101257.41;5088641;27;46997;-76
2023/06/30 11:05:35;;;;;;;;;5.00;5.00;;;;;25.55;39.96;101277.97;5084171;27;46105;-80
2023/06/30 11:08:09;;;;;;;;;3.00;3.00;;;;;25.55;39.50;101274.38;5093032;27;45484;-80
2023/06/30 11:10:45;;;;;;;;;5.00;3.00;;;;;25.54;39.88;101262.63;5091961;27;45469;-80
2023/06/30 11:13:11;;;;;;;;;5.00;4.67;;;;;25.53;39.63;101269.97;5090877;27;45769;-80
2023/06/30 11:15:45;;;;;;;;;2.67;2.67;;;;;25.53;39.41;101264.53;5088866;27;45492;-74
2023/06/30 11:18:15;;;;;;;;;3.67;3.67;;;;;25.55;40.09;101264.38;5091732;27;45752;-76
2023/06/30 11:21:01;;;;;;;;;5.33;5.00;;;;;25.56;39.93;101267.94;5082098;27;45417;-76
2023/06/30 11:23:28;;;;;;;;;4.33;3.00;;;;;25.58;40.34;101255.88;5091155;27;46357;-77
2023/06/30 11:25:58;;;;;;;;;2.00;2.00;;;;;25.59;40.51;101260.28;5089161;27;45402;-78
2023/06/30 11:28:28;;;;;;;;;4.00;2.33;;;;;25.61;40.51;101260.13;5081686;27;45646;-77
2023/06/30 11:30:53;;;;;;;;;6.00;3.00;;;;;25.64;40.61;101262.50;5075216;27;47030;-76
2023/06/30 11:33:19;;;;;;;;;3.00;3.00;;;;;25.65;40.82;101267.78;5084929;27;45957;-78
2023/06/30 11:35:50;;;;;;;;;4.00;2.67;;;;;25.68;41.11;101263.88;5083963;27;45513;-77
2023/06/30 11:38:16;;;;;;;;;3.00;3.00;;;;;25.71;41.25;101259.97;5089393;27;45489;-78
2023/06/30 11:40:49;;;;;;;;;3.00;2.33;;;;;25.73;41.23;101256.06;5090742;27;45511;-77
2023/06/30 11:43:15;;;;;;;;;2.00;2.00;;;;;25.75;41.46;101259.44;5092501;27;45733;-77
2023/06/30 11:45:40;;;;;;;;;3.00;3.00;;;;;25.81;41.49;101257.03;5094436;27;45385;-76
2023/06/30 11:48:06;;;;;;;;;2.00;2.00;;;;;25.81;41.67;101248.88;5087386;27;45557;-76
2023/06/30 11:50:33;;;;;;;;;4.00;4.00;;;;;25.85;41.37;101255.69;5088692;27;45500;-76
2023/06/30 11:53:00;;;;;;;;;2.33;2.33;;;;;25.87;41.33;101242.78;5092596;27;46192;-75
2023/06/30 11:55:28;;;;;;;;;2.67;2.67;;;;;25.88;41.85;101245.31;5091676;27;45657;-76
2023/06/30 11:57:53;;;;;;;;;3.00;2.00;;;;;25.91;41.41;101250.41;5093720;27;45484;-76
2023/06/30 12:00:21;;;;;;;;;3.00;3.00;;;;;25.94;41.54;101249.22;5091622;27;45652;-75
2023/06/30 12:02:48;;;;;;;;;2.33;1.67;;;;;25.93;41.45;101233.94;5093436;27;46438;-79
2023/06/30 12:05:16;;;;;;;;;2.00;2.00;;;;;25.98;41.82;101244.28;5093549;27;45511;-76
2023/06/30 12:07:46;;;;;;;;;2.67;2.00;;;;;25.99;41.58;101233.22;5093153;27;45320;-78
2023/06/30 12:10:12;;;;;;;;;2.00;2.00;;;;;26.01;41.94;101224.91;5095095;27;45371;-75
2023/06/30 12:12:38;;;;;;;;;4.00;3.00;;;;;26.04;42.22;101232.72;5082383;27;46042;-76
2023/06/30 12:15:07;;;;;;;;;3.00;3.00;;;;;26.07;42.22;101226.09;5084998;27;45434;-75
